Billings, MT

1:26 PM MDT on April 18, 2015 (GMT -0600)
Downtown Billings | | Change Station
CLOSE
Current Station
Personal Weather Station
Location: Billings, MT
Elevation: 3127 ft
Nearby Weather Stations

Elev 3127 ft 45.78 °N, 108.50 °W | Updated 2 seconds ago

Mostly Cloudy
Mostly Cloudy
60.8 °F
Feels Like 60.8 °F
N
15.2
Wind Variable Wind from NNE
Gusts 24.2 mph

Today
High -- | Low -- °F
--% Chance of Precip.
Yesterday
High -- | Low -- °F
Precip. -- in
6:23 AM 8:04 PM
New Moon, 0% visible
Pressure 30.02 in
Visibility 10.0 miles
Clouds Few 6500 ft
Scattered Clouds 9000 ft
Mostly Cloudy 20000 ft
Dew Point 35 °F
Humidity 37%
Rainfall -999.00 in
Snow Depth Not available.
UV 5 out of 12
Pollen 9.10 out of 12
Air Quality Not available.
Flu Activity Regional
SPECI KBIL 181903Z 03019G29KT 10SM FEW065 SCT090 BKN200 16/00 A3002 RMK AO2 PK WND 04029/1856 WSHFT 1843 T01560000

More Conditions Fewer Conditions

Pressure 30.02 in
Visibility 10.0 miles
Clouds Few 6500 ft
Scattered Clouds 9000 ft
Mostly Cloudy 20000 ft
Dew Point 35 °F
Humidity 37%
Rainfall -999.00 in
Snow Depth Not available.
UV 5 out of 12
Pollen 9.10 out of 12
Air Quality Not available.
Flu Activity Regional
SPECI KBIL 181903Z 03019G29KT 10SM FEW065 SCT090 BKN200 16/00 A3002 RMK AO2 PK WND 04029/1856 WSHFT 1843 T01560000

More Conditions Fewer Conditions

10-Day Weather Forecast

Almanac

Astronomy

Apr. 18, 2015 Rise Set
Actual Time
Civil Twilight
Nautical Twilight
Astronomical Twilight
Moon
Length of Visible Light
Length of Day
Tomorrow will be .
, % of the Moon is Illuminated

Today's Extremes

State Highs State Lows

Community

WunderPhotos

Upload Photos

1,814,501 photos uploaded!

WunderBlogs® & News

Nearby

Air Quality

  Air Quality AQ Index Pollutant
Not available.

Snow Depth

Station Depth Elevation

Earthquake Activity

City Distance Mag. Time & Date
Minimum magnitude displayed is 2.5.

Coastal Water Temperatures

Place Temperature

Stations

Nearby Weather Stations

Station Location Temp. Windchill Dew Point Humidity Wind Precip. Elev Updated Type